Time;durP1;ratioP1;P1;durP2;ratioP2;P2;SDS_P1;SDS_P2;PMS_P1;PMS_P2;Temp;Humidity;BMP_temperature;BMP_pressure;BME280_temperature;BME280_humidity;BME280_pressure;Samples;Min_cycle;Max_cycle;Signal;HPM_P1;HPM_P2
2023/01/26 00:02:05;;;;;;;16.57;12.87;;;2.70;93.40;;;;;;5122447;28;20182;-91
2023/01/26 00:04:30;;;;;;;16.47;13.50;;;2.70;92.40;;;;;;5101399;28;20175;-89
2023/01/26 00:06:56;;;;;;;17.40;14.90;;;2.80;92.00;;;;;;5095847;28;20178;-90
2023/01/26 00:09:21;;;;;;;15.57;13.10;;;2.80;90.10;;;;;;5101944;28;20912;-89
2023/01/26 00:11:47;;;;;;;15.60;13.07;;;2.70;89.70;;;;;;5116831;28;20190;-89
2023/01/26 00:14:13;;;;;;;13.93;11.83;;;2.70;90.40;;;;;;5117024;28;20186;-90
2023/01/26 00:16:39;;;;;;;13.27;11.87;;;2.70;91.20;;;;;;5117896;28;20190;-90
2023/01/26 00:19:04;;;;;;;13.80;11.53;;;2.70;91.90;;;;;;5116142;28;20222;-89
2023/01/26 00:21:30;;;;;;;15.67;13.33;;;2.80;93.00;;;;;;5115030;28;20275;-89
2023/01/26 00:23:56;;;;;;;14.30;12.63;;;2.80;91.50;;;;;;5113695;28;20170;-88
2023/01/26 00:26:24;;;;;;;13.13;11.43;;;2.80;90.10;;;;;;5114041;28;20182;-89
2023/01/26 00:28:50;;;;;;;14.60;12.60;;;2.80;91.10;;;;;;5113581;28;20410;-87
2023/01/26 00:31:24;;;;;;;16.10;12.43;;;2.80;91.10;;;;;;5113967;28;20193;-88
2023/01/26 00:33:51;;;;;;;15.33;12.90;;;2.80;91.80;;;;;;5114763;28;20170;-89
2023/01/26 00:36:17;;;;;;;13.73;12.00;;;2.70;91.80;;;;;;5115325;28;20311;-88
2023/01/26 00:38:43;;;;;;;14.00;11.87;;;2.80;92.00;;;;;;5115707;28;20218;-89
2023/01/26 00:42:05;;;;;;;14.13;11.13;;;2.80;91.90;;;;;;5114918;28;20232;-89
2023/01/26 00:43:55;;;;;;;13.67;11.37;;;2.80;92.40;;;;;;5115001;28;20187;-88
2023/01/26 00:46:20;;;;;;;15.00;12.17;;;2.90;92.20;;;;;;5114770;28;20207;-89
2023/01/26 00:48:46;;;;;;;14.27;12.13;;;2.80;91.60;;;;;;5114276;28;20700;-90
2023/01/26 00:51:12;;;;;;;14.57;11.90;;;2.80;92.00;;;;;;5114593;28;20656;-88
2023/01/26 00:53:37;;;;;;;14.53;12.13;;;2.80;91.70;;;;;;5116095;28;20228;-89
2023/01/26 00:56:03;;;;;;;15.80;13.27;;;2.90;91.40;;;;;;5109712;28;20210;-88
2023/01/26 00:58:29;;;;;;;14.60;11.93;;;2.80;90.60;;;;;;5103600;28;20214;-87
2023/01/26 01:00:54;;;;;;;15.40;12.40;;;2.60;91.90;;;;;;5110152;28;20208;-90
2023/01/26 01:03:20;;;;;;;15.00;11.60;;;2.70;92.50;;;;;;5105071;28;20187;-89
2023/01/26 01:05:45;;;;;;;14.17;12.03;;;2.70;92.10;;;;;;5094464;28;20179;-90
2023/01/26 01:08:11;;;;;;;15.27;12.00;;;2.80;92.20;;;;;;5100716;28;20198;-89
2023/01/26 01:10:37;;;;;;;15.53;12.70;;;2.80;92.20;;;;;;5114143;28;20246;-88
2023/01/26 01:13:02;;;;;;;13.90;12.37;;;2.70;91.30;;;;;;5114591;28;20826;-90
2023/01/26 01:15:28;;;;;;;16.47;12.63;;;2.70;91.80;;;;;;5113251;28;20186;-89
2023/01/26 01:17:53;;;;;;;14.43;12.37;;;2.70;91.60;;;;;;5112438;28;20725;-90
2023/01/26 01:20:19;;;;;;;17.47;13.33;;;2.60;92.40;;;;;;5112468;28;20182;-88
2023/01/26 01:22:45;;;;;;;14.27;12.67;;;2.60;92.10;;;;;;5113326;28;20178;-87
2023/01/26 01:25:10;;;;;;;17.73;13.20;;;2.60;92.00;;;;;;5112443;28;20179;-89
2023/01/26 01:27:36;;;;;;;15.97;13.37;;;2.60;93.10;;;;;;5112345;28;20656;-89
2023/01/26 01:30:06;;;;;;;16.07;13.03;;;2.50;93.60;;;;;;5097667;28;20689;-91
2023/01/26 01:32:34;;;;;;;15.63;12.33;;;2.50;92.80;;;;;;5115504;28;20193;-89
2023/01/26 01:35:00;;;;;;;17.93;13.47;;;2.50;93.90;;;;;;5115727;28;20236;-90
2023/01/26 01:37:28;;;;;;;17.60;13.63;;;2.50;93.50;;;;;;5117761;28;20636;-89
2023/01/26 01:39:54;;;;;;;17.40;13.27;;;2.50;93.40;;;;;;5116453;28;20233;-91
2023/01/26 01:42:20;;;;;;;16.13;12.33;;;2.50;93.50;;;;;;5117170;28;20190;-87
2023/01/26 01:45:05;;;;;;;18.10;13.77;;;2.60;93.30;;;;;;5117570;28;20411;-88
2023/01/26 01:47:32;;;;;;;14.97;12.70;;;2.60;93.10;;;;;;5117602;28;20307;-88
2023/01/26 01:49:57;;;;;;;15.60;13.10;;;2.60;92.70;;;;;;5116984;28;20742;-88
2023/01/26 01:52:32;;;;;;;16.97;12.23;;;2.70;92.90;;;;;;5117887;28;20227;-90
2023/01/26 01:55:06;;;;;;;16.57;12.57;;;2.70;93.10;;;;;;5117889;28;20170;-90
2023/01/26 01:57:54;;;;;;;15.73;12.07;;;2.70;92.90;;;;;;5115719;28;20663;-90
2023/01/26 02:00:22;;;;;;;15.70;12.63;;;2.80;91.80;;;;;;5095700;28;20696;-90
2023/01/26 02:03:13;;;;;;;15.70;12.70;;;2.80;92.00;;;;;;5098065;28;20177;-89
2023/01/26 02:06:23;;;;;;;14.27;11.73;;;2.80;91.50;;;;;;5087458;28;20183;-88
2023/01/26 02:08:54;;;;;;;14.73;11.80;;;2.80;90.40;;;;;;5105467;28;20572;-89
2023/01/26 02:11:24;;;;;;;13.63;12.23;;;2.80;91.40;;;;;;5116806;28;20219;-89
2023/01/26 02:13:51;;;;;;;17.30;13.50;;;2.70;91.80;;;;;;5117126;28;20219;-90
2023/01/26 02:16:18;;;;;;;13.87;12.17;;;2.70;91.10;;;;;;5115658;28;20257;-90
2023/01/26 02:18:44;;;;;;;14.83;12.33;;;2.80;91.00;;;;;;5113521;28;20229;-89
2023/01/26 02:21:14;;;;;;;13.77;12.00;;;2.80;90.30;;;;;;5115707;28;20175;-90
2023/01/26 02:23:51;;;;;;;14.97;12.47;;;2.80;90.60;;;;;;5117480;28;20206;-90
2023/01/26 02:26:22;;;;;;;14.93;12.10;;;2.80;90.90;;;;;;5132558;28;20171;-90
2023/01/26 02:28:48;;;;;;;15.97;13.27;;;2.80;90.90;;;;;;5116639;28;20194;-89
2023/01/26 02:31:16;;;;;;;16.37;12.87;;;2.70;89.30;;;;;;5118880;28;20166;-89
2023/01/26 02:33:42;;;;;;;13.87;12.33;;;2.70;89.70;;;;;;5117731;28;20181;-90
2023/01/26 02:36:32;;;;;;;15.83;12.53;;;2.70;90.90;;;;;;5115271;28;20274;-89
2023/01/26 02:39:25;;;;;;;18.07;13.77;;;2.70;91.20;;;;;;5133088;28;20289;-89
2023/01/26 02:44:38;;;;;;;15.37;12.50;;;2.60;90.40;;;;;;5128458;28;20384;-89
2023/01/26 02:47:14;;;;;;;15.63;12.90;;;2.50;91.50;;;;;;5119922;28;20182;-90
2023/01/26 02:49:46;;;;;;;16.33;13.27;;;2.50;91.00;;;;;;5099539;28;20281;-89
2023/01/26 02:52:13;;;;;;;15.73;13.40;;;2.50;90.90;;;;;;5099474;28;20167;-89
2023/01/26 02:57:23;;;;;;;18.40;13.20;;;2.50;90.60;;;;;;5132005;28;20254;-89
2023/01/26 02:59:48;;;;;;;17.07;12.90;;;2.40;90.80;;;;;;5121842;28;20225;-90
2023/01/26 03:02:14;;;;;;;16.57;13.33;;;2.40;91.30;;;;;;5117154;28;20201;-90
2023/01/26 03:04:41;;;;;;;16.93;13.93;;;2.40;91.30;;;;;;5116648;28;20170;-90
2023/01/26 03:07:06;;;;;;;18.73;14.67;;;2.50;91.70;;;;;;5115885;28;20185;-90
2023/01/26 03:09:32;;;;;;;18.67;14.40;;;2.40;91.30;;;;;;5115557;28;20210;-90
2023/01/26 03:11:57;;;;;;;19.90;14.47;;;2.40;91.00;;;;;;5115302;28;20178;-90
2023/01/26 03:14:23;;;;;;;20.27;14.27;;;2.40;91.40;;;;;;5113812;28;20178;-89
2023/01/26 03:16:49;;;;;;;18.07;14.40;;;2.40;91.50;;;;;;5112823;28;20265;-90
2023/01/26 03:27:33;;;;;;;21.23;14.67;;;2.40;91.50;;;;;;5123893;28;20177;-91
2023/01/26 03:29:59;;;;;;;17.33;13.80;;;2.40;91.30;;;;;;5123233;28;20189;-89
2023/01/26 03:32:25;;;;;;;18.97;14.43;;;2.30;91.60;;;;;;5123836;28;20190;-89
2023/01/26 03:34:51;;;;;;;20.67;14.60;;;2.30;92.70;;;;;;5124598;28;20166;-89
2023/01/26 03:37:21;;;;;;;20.43;14.77;;;2.40;92.10;;;;;;5124884;28;20178;-89
2023/01/26 03:56:23;;;;;;;37.63;27.17;;;2.50;92.30;;;;;;5109801;28;20177;-89
2023/01/26 03:58:51;;;;;;;19.97;16.00;;;2.60;92.50;;;;;;5118055;28;20237;-89
2023/01/26 04:01:25;;;;;;;21.97;16.33;;;2.70;92.30;;;;;;5103256;28;20238;-90
2023/01/26 04:09:22;;;;;;;21.20;15.43;;;2.70;91.50;;;;;;5122780;28;20219;-88
2023/01/26 04:11:48;;;;;;;20.53;16.47;;;2.70;92.20;;;;;;5124683;28;20190;-88
2023/01/26 04:22:30;;;;;;;27.87;23.37;;;2.60;92.80;;;;;;5120897;28;20548;-90
2023/01/26 04:24:58;;;;;;;21.20;17.03;;;2.60;93.90;;;;;;5121986;28;20185;-90
2023/01/26 04:27:24;;;;;;;20.53;16.40;;;2.50;94.00;;;;;;5125512;28;20205;-88
2023/01/26 04:29:50;;;;;;;20.87;16.13;;;2.50;94.20;;;;;;5133604;28;20166;-90
2023/01/26 04:32:15;;;;;;;23.33;16.97;;;2.40;94.40;;;;;;5134133;28;20644;-89
2023/01/26 04:34:41;;;;;;;23.07;16.73;;;2.20;95.10;;;;;;5132203;28;20262;-90
2023/01/26 04:37:08;;;;;;;23.23;14.77;;;2.30;95.80;;;;;;5129561;28;20606;-89
2023/01/26 04:39:33;;;;;;;22.40;15.97;;;2.20;96.00;;;;;;5118651;28;20290;-90
2023/01/26 04:41:59;;;;;;;24.53;16.57;;;2.20;96.90;;;;;;5115675;28;20193;-89
2023/01/26 04:44:25;;;;;;;22.57;16.47;;;2.10;97.40;;;;;;5102911;28;20163;-89
2023/01/26 04:46:50;;;;;;;21.83;16.63;;;2.10;96.80;;;;;;5114005;28;20182;-89
2023/01/26 04:49:16;;;;;;;22.07;16.23;;;2.00;97.50;;;;;;5120980;28;20277;-87
2023/01/26 04:51:42;;;;;;;23.87;15.33;;;2.00;99.00;;;;;;5122979;28;20192;-89
2023/01/26 04:54:08;;;;;;;22.40;15.83;;;2.00;98.60;;;;;;5122512;28;20182;-89
2023/01/26 04:56:34;;;;;;;22.03;16.00;;;2.00;98.70;;;;;;5121759;28;20558;-89
2023/01/26 04:59:03;;;;;;;22.20;16.20;;;2.00;98.30;;;;;;5121030;28;20214;-89
2023/01/26 05:01:29;;;;;;;21.80;16.63;;;2.00;98.80;;;;;;5122572;28;20603;-89
2023/01/26 05:03:57;;;;;;;24.60;16.20;;;1.90;99.10;;;;;;5122686;28;20174;-90
2023/01/26 05:06:23;;;;;;;23.33;17.63;;;2.00;99.30;;;;;;5121462;28;20166;-89
2023/01/26 05:08:49;;;;;;;22.03;16.03;;;2.00;98.80;;;;;;5120627;28;20228;-90
2023/01/26 05:11:15;;;;;;;20.47;15.90;;;1.90;99.70;;;;;;5118973;28;20230;-89
2023/01/26 05:13:40;;;;;;;21.60;16.00;;;1.90;99.90;;;;;;5121276;28;20257;-89
2023/01/26 05:16:06;;;;;;;20.33;15.67;;;2.00;99.50;;;;;;5119906;28;20182;-88
2023/01/26 05:18:32;;;;;;;21.80;16.43;;;2.10;99.90;;;;;;5119713;28;20274;-89
2023/01/26 05:20:58;;;;;;;21.80;17.10;;;2.10;99.20;;;;;;5116879;28;20225;-89
2023/01/26 05:23:24;;;;;;;23.17;17.10;;;2.10;99.50;;;;;;5117073;28;20200;-90
2023/01/26 05:25:50;;;;;;;22.37;16.83;;;2.00;99.90;;;;;;5121395;28;20689;-89
2023/01/26 05:28:15;;;;;;;24.83;17.90;;;2.00;99.90;;;;;;5116416;28;20216;-88
2023/01/26 05:30:41;;;;;;;25.40;16.07;;;2.00;99.90;;;;;;5119956;28;20390;-89
2023/01/26 05:33:09;;;;;;;21.73;17.00;;;2.10;99.90;;;;;;5113148;28;20175;-88
2023/01/26 05:35:35;;;;;;;22.07;15.70;;;2.10;99.90;;;;;;5121286;28;20721;-89
2023/01/26 05:38:01;;;;;;;23.90;17.50;;;2.10;99.90;;;;;;5122760;28;20221;-88
2023/01/26 05:40:27;;;;;;;24.60;17.27;;;2.20;99.90;;;;;;5120943;28;20166;-89
2023/01/26 05:42:53;;;;;;;20.40;15.30;;;2.20;99.90;;;;;;5123354;28;20186;-89
2023/01/26 05:45:20;;;;;;;21.57;16.27;;;2.20;99.90;;;;;;5121112;28;20202;-90
2023/01/26 05:47:46;;;;;;;21.37;18.27;;;2.20;99.90;;;;;;5117826;28;20545;-90
2023/01/26 05:50:12;;;;;;;21.37;16.30;;;2.10;99.90;;;;;;5118808;28;20211;-90
2023/01/26 05:52:38;;;;;;;23.40;16.20;;;2.10;99.90;;;;;;5102306;28;20172;-91
2023/01/26 05:55:05;;;;;;;22.80;16.43;;;2.10;99.90;;;;;;5101500;28;20159;-91
2023/01/26 05:57:31;;;;;;;21.70;16.27;;;2.10;99.90;;;;;;5101533;28;20186;-90
2023/01/26 05:59:57;;;;;;;22.87;16.20;;;2.10;99.90;;;;;;5110105;28;20256;-90
2023/01/26 06:02:23;;;;;;;20.47;16.50;;;2.10;99.90;;;;;;5120183;28;20178;-90
2023/01/26 06:04:52;;;;;;;21.17;16.30;;;2.10;99.90;;;;;;5101058;28;20182;-89
2023/01/26 06:07:17;;;;;;;22.57;16.73;;;2.20;99.90;;;;;;5100754;28;20175;-91
2023/01/26 06:09:44;;;;;;;22.80;15.57;;;2.20;99.90;;;;;;5099284;28;20759;-89
2023/01/26 06:12:17;;;;;;;21.83;15.17;;;2.10;99.90;;;;;;5110366;28;20214;-90
2023/01/26 06:14:43;;;;;;;19.63;13.83;;;2.00;99.90;;;;;;5123015;28;20190;-90
2023/01/26 06:17:09;;;;;;;22.63;15.97;;;2.00;99.90;;;;;;5125394;28;20191;-89
2023/01/26 06:19:38;;;;;;;22.10;14.73;;;1.90;99.90;;;;;;5132905;28;20269;-91
2023/01/26 06:22:07;;;;;;;17.47;14.50;;;1.90;99.90;;;;;;5117077;28;20175;-92
2023/01/26 06:24:34;;;;;;;21.03;15.37;;;1.90;99.90;;;;;;5133091;28;20209;-90
2023/01/26 06:27:00;;;;;;;20.33;16.00;;;1.90;99.90;;;;;;5133004;28;20175;-93
2023/01/26 06:29:26;;;;;;;20.73;15.30;;;2.00;99.90;;;;;;5132951;28;20202;-89
2023/01/26 06:31:52;;;;;;;22.27;14.47;;;1.90;99.90;;;;;;5124685;28;20179;-91
2023/01/26 06:34:18;;;;;;;21.13;15.53;;;1.80;99.90;;;;;;5125203;28;20187;-90
2023/01/26 06:36:44;;;;;;;20.73;14.97;;;1.90;99.90;;;;;;5124956;28;20220;-91
2023/01/26 06:39:11;;;;;;;21.53;15.97;;;1.90;99.90;;;;;;5124214;28;20215;-91
2023/01/26 06:41:37;;;;;;;24.23;17.23;;;2.00;99.90;;;;;;5123920;28;20207;-90
2023/01/26 06:44:03;;;;;;;23.43;14.70;;;2.00;99.90;;;;;;5124549;27;20182;-90
2023/01/26 06:46:29;;;;;;;18.27;13.87;;;1.90;99.90;;;;;;5123919;28;20635;-90
2023/01/26 06:48:55;;;;;;;18.43;13.93;;;1.80;99.90;;;;;;5125459;28;20202;-91
2023/01/26 06:51:21;;;;;;;18.80;12.87;;;1.70;99.90;;;;;;5125864;28;20193;-90
2023/01/26 06:53:54;;;;;;;17.57;12.90;;;1.80;99.90;;;;;;5124940;28;20201;-91
2023/01/26 06:56:20;;;;;;;18.03;13.23;;;1.70;99.90;;;;;;5124991;28;20174;-90
2023/01/26 06:58:46;;;;;;;19.57;14.00;;;1.70;99.90;;;;;;5125734;28;20217;-91
2023/01/26 07:01:20;;;;;;;21.63;13.93;;;1.80;99.90;;;;;;5125936;28;20182;-91
2023/01/26 07:03:53;;;;;;;21.97;14.33;;;1.80;99.90;;;;;;5125142;28;20175;-91
2023/01/26 07:06:19;;;;;;;16.73;12.60;;;1.80;99.90;;;;;;5124441;28;20258;-91
2023/01/26 07:08:44;;;;;;;18.67;12.80;;;1.80;99.90;;;;;;5116654;28;20226;-89
2023/01/26 07:11:11;;;;;;;17.67;13.37;;;1.70;99.90;;;;;;5121503;28;20247;-90
2023/01/26 07:13:40;;;;;;;18.97;12.77;;;1.70;99.90;;;;;;5125631;28;20181;-90
2023/01/26 07:16:17;;;;;;;17.33;13.47;;;1.70;99.90;;;;;;5125878;28;20190;-89
2023/01/26 07:18:45;;;;;;;20.77;15.50;;;1.70;99.90;;;;;;5123521;28;20275;-91
2023/01/26 07:21:20;;;;;;;20.47;15.23;;;1.70;99.90;;;;;;5126045;28;20238;-87
2023/01/26 07:24:43;;;;;;;18.83;13.60;;;1.70;99.90;;;;;;5127195;28;20193;-89
2023/01/26 07:27:37;;;;;;;17.40;13.20;;;1.70;99.90;;;;;;5103124;28;20254;-89
2023/01/26 07:30:36;;;;;;;;;;;;;;;;;;;;;
2023/01/26 07:33:29;;;;;;;;;;;;;;;;;;;;;
2023/01/26 07:36:28;;;;;;;21.03;14.33;;;1.60;99.90;;;;;;5123136;28;20250;-89
2023/01/26 07:38:53;;;;;;;17.90;14.30;;;1.70;99.90;;;;;;5037611;22;20260;-90
2023/01/26 07:41:19;;;;;;;17.63;13.63;;;1.70;99.90;;;;;;5041804;28;20177;-90
2023/01/26 07:44:03;;;;;;;16.17;12.67;;;1.80;99.90;;;;;;5041636;28;20246;-90
2023/01/26 07:46:32;;;;;;;17.20;13.13;;;1.80;99.90;;;;;;5038100;28;20886;-89
2023/01/26 07:48:58;;;;;;;21.90;16.20;;;1.80;99.90;;;;;;5019815;28;20227;-88
2023/01/26 07:51:24;;;;;;;19.90;15.73;;;1.80;99.90;;;;;;5023185;28;20210;-88
2023/01/26 07:53:50;;;;;;;20.53;15.80;;;1.80;99.90;;;;;;5017399;28;20198;-88
2023/01/26 07:56:20;;;;;;;25.17;16.73;;;1.90;99.90;;;;;;5017029;28;20206;-89
2023/01/26 07:58:55;;;;;;;24.83;16.53;;;1.80;99.90;;;;;;5022293;28;20216;-88
2023/01/26 08:01:22;;;;;;;21.97;16.77;;;1.80;99.90;;;;;;5016190;28;20193;-87
2023/01/26 08:03:52;;;;;;;20.27;16.40;;;1.80;99.90;;;;;;5018523;28;20220;-88
2023/01/26 08:06:19;;;;;;;24.43;16.93;;;1.80;99.90;;;;;;5020677;28;20264;-89
2023/01/26 08:08:49;;;;;;;23.03;18.20;;;1.80;99.90;;;;;;5014984;28;20265;-90
2023/01/26 08:11:16;;;;;;;23.40;16.73;;;1.80;99.90;;;;;;5017595;28;20262;-89
2023/01/26 08:13:42;;;;;;;27.87;17.77;;;1.90;99.90;;;;;;5018622;28;20287;-88
2023/01/26 08:16:14;;;;;;;31.73;20.07;;;1.90;99.90;;;;;;5021002;28;20276;-88
2023/01/26 08:18:45;;;;;;;22.87;17.57;;;2.00;99.90;;;;;;5020404;28;20217;-88
2023/01/26 08:21:15;;;;;;;26.33;17.97;;;2.00;99.90;;;;;;5016963;28;20177;-88
2023/01/26 08:23:41;;;;;;;25.83;18.10;;;1.80;99.90;;;;;;5040710;28;20273;-88
2023/01/26 08:26:10;;;;;;;26.00;18.17;;;1.90;99.90;;;;;;5021547;28;20197;-87
2023/01/26 08:28:42;;;;;;;24.83;18.50;;;1.90;99.90;;;;;;5019689;28;20185;-89
2023/01/26 08:31:13;;;;;;;23.57;17.70;;;1.90;99.90;;;;;;5020693;28;20215;-89
2023/01/26 08:33:41;;;;;;;25.87;17.57;;;1.90;99.90;;;;;;5016394;28;20281;-88
2023/01/26 08:36:10;;;;;;;30.67;17.63;;;1.90;99.90;;;;;;5019950;28;20180;-88
2023/01/26 08:38:36;;;;;;;23.47;17.53;;;1.90;99.90;;;;;;5015546;28;20302;-88
2023/01/26 08:41:03;;;;;;;21.90;16.60;;;1.90;99.90;;;;;;5015374;28;20867;-88
2023/01/26 08:43:29;;;;;;;25.23;16.70;;;1.90;99.90;;;;;;5015977;28;20185;-88
2023/01/26 08:45:59;;;;;;;24.77;17.37;;;2.00;99.80;;;;;;5015236;28;20192;-89
2023/01/26 08:48:29;;;;;;;26.27;17.33;;;1.90;99.00;;;;;;5019310;28;20181;-89
2023/01/26 08:51:16;;;;;;;23.37;16.13;;;2.00;98.90;;;;;;5019449;28;20214;-89
2023/01/26 08:53:42;;;;;;;23.07;16.20;;;2.00;97.90;;;;;;5019043;28;20180;-88
2023/01/26 08:56:11;;;;;;;27.47;20.20;;;2.00;97.90;;;;;;5024512;28;20189;-87
2023/01/26 08:58:37;;;;;;;22.07;15.63;;;2.00;98.00;;;;;;5014400;28;20217;-90
2023/01/26 09:01:05;;;;;;;20.27;15.40;;;2.00;99.10;;;;;;5015570;28;20204;-88
2023/01/26 09:03:35;;;;;;;18.73;13.83;;;2.00;96.90;;;;;;5031334;28;20181;-88
2023/01/26 09:06:03;;;;;;;20.67;15.40;;;2.00;96.40;;;;;;5012811;28;20193;-89
2023/01/26 09:08:38;;;;;;;18.83;15.17;;;2.00;96.40;;;;;;5016654;28;20188;-89
2023/01/26 09:11:08;;;;;;;17.33;14.33;;;2.00;95.40;;;;;;5018487;28;20189;-88
2023/01/26 09:13:36;;;;;;;20.20;14.60;;;2.00;96.00;;;;;;5012958;28;20176;-88
2023/01/26 09:16:18;;;;;;;18.27;12.57;;;2.10;95.70;;;;;;5021073;28;20207;-88
2023/01/26 09:18:43;;;;;;;16.23;12.20;;;2.00;92.00;;;;;;5012913;28;20205;-89
2023/01/26 09:21:09;;;;;;;16.87;12.67;;;2.00;91.90;;;;;;5020357;28;20208;-89
2023/01/26 09:23:35;;;;;;;20.03;14.40;;;2.00;92.00;;;;;;5011663;28;20161;-89
2023/01/26 09:26:02;;;;;;;20.40;14.60;;;2.00;91.80;;;;;;5006910;28;20185;-89
2023/01/26 09:28:28;;;;;;;19.33;14.03;;;1.90;92.20;;;;;;5001873;28;20735;-89
2023/01/26 09:30:54;;;;;;;19.97;13.57;;;1.90;93.10;;;;;;5008550;28;20206;-89
2023/01/26 09:33:24;;;;;;;19.37;13.63;;;1.80;92.20;;;;;;4996953;28;20876;-88
2023/01/26 09:35:49;;;;;;;19.90;13.43;;;1.60;93.50;;;;;;5004128;28;20277;-89
2023/01/26 09:38:15;;;;;;;20.10;13.20;;;1.70;93.60;;;;;;5005650;28;20220;-88
2023/01/26 09:41:06;;;;;;;17.80;13.10;;;1.60;92.80;;;;;;5000662;28;20210;-88
2023/01/26 09:43:46;;;;;;;17.00;12.47;;;1.60;93.50;;;;;;5026138;28;20188;-88
2023/01/26 09:46:46;;;;;;;18.50;13.10;;;1.50;94.90;;;;;;5005639;28;20195;-88
2023/01/26 09:49:51;;;;;;;19.37;13.57;;;1.50;95.50;;;;;;5007769;28;20215;-88
2023/01/26 09:52:49;;;;;;;17.53;13.20;;;1.50;95.50;;;;;;4965126;28;20202;-89
2023/01/26 09:55:18;;;;;;;18.03;13.80;;;1.60;95.00;;;;;;5009656;28;20275;-89
2023/01/26 09:57:56;;;;;;;23.40;13.67;;;1.70;94.50;;;;;;5006932;28;20712;-88
2023/01/26 10:00:33;;;;;;;17.83;13.37;;;1.60;93.70;;;;;;5008605;28;20247;-88
2023/01/26 10:03:17;;;;;;;18.87;12.33;;;1.60;93.60;;;;;;5012479;28;20868;-88
2023/01/26 10:05:57;;;;;;;23.90;14.30;;;1.70;94.00;;;;;;5006829;28;20190;-88
2023/01/26 10:08:25;;;;;;;17.03;12.30;;;1.70;93.10;;;;;;5009843;28;20732;-88
2023/01/26 10:11:13;;;;;;;18.80;14.13;;;1.70;93.10;;;;;;5004998;28;20275;-88
2023/01/26 10:13:42;;;;;;;18.90;13.40;;;1.70;92.80;;;;;;5001957;28;20589;-89
2023/01/26 10:16:11;;;;;;;18.50;12.83;;;1.70;92.40;;;;;;5009790;28;20277;-89
2023/01/26 10:18:55;;;;;;;16.77;12.50;;;1.70;90.80;;;;;;5009032;28;20603;-88
2023/01/26 10:21:29;;;;;;;19.23;13.00;;;1.70;90.60;;;;;;5013975;28;20169;-88
2023/01/26 10:24:05;;;;;;;16.47;12.70;;;1.70;90.60;;;;;;5017498;28;20224;-87
2023/01/26 10:26:32;;;;;;;15.53;12.60;;;1.70;90.00;;;;;;5016550;28;20729;-89
2023/01/26 10:29:07;;;;;;;17.80;12.80;;;1.70;89.80;;;;;;5018490;28;20228;-89
2023/01/26 10:31:42;;;;;;;19.83;12.73;;;1.80;91.10;;;;;;5009148;28;20207;-90
2023/01/26 10:34:27;;;;;;;16.43;12.70;;;1.70;89.90;;;;;;5004320;28;20185;-90
2023/01/26 10:37:28;;;;;;;16.37;12.57;;;1.70;91.20;;;;;;5009120;28;20185;-90
2023/01/26 10:40:03;;;;;;;16.30;12.00;;;1.80;90.70;;;;;;5032067;28;20731;-89
2023/01/26 10:42:39;;;;;;;21.07;15.53;;;1.90;91.60;;;;;;5005960;28;20199;-90
2023/01/26 10:45:28;;;;;;;19.37;13.33;;;1.90;91.20;;;;;;5005742;28;20248;-90
2023/01/26 10:48:18;;;;;;;16.07;11.87;;;2.00;89.80;;;;;;5005965;28;20186;-90
2023/01/26 10:50:46;;;;;;;16.00;12.13;;;2.00;90.70;;;;;;5010254;28;20494;-89
2023/01/26 10:53:38;;;;;;;18.07;11.87;;;2.00;90.00;;;;;;5004355;28;20209;-89
2023/01/26 11:00:21;;;;;;;15.70;11.53;;;2.00;89.60;;;;;;4976055;28;20256;-90
2023/01/26 11:03:19;;;;;;;14.97;11.37;;;1.90;90.70;;;;;;5003058;28;20189;-90
2023/01/26 11:06:06;;;;;;;14.60;10.50;;;1.90;92.20;;;;;;5074633;22;20227;-89
2023/01/26 11:08:36;;;;;;;11.80;10.53;;;1.80;92.80;;;;;;5095564;28;20210;-89
2023/01/26 11:11:17;;;;;;;12.80;10.03;;;1.90;94.00;;;;;;5085351;28;20889;-88
2023/01/26 11:14:46;;;;;;;12.23;9.50;;;2.00;92.90;;;;;;5069417;28;20187;-87
2023/01/26 11:17:58;;;;;;;9.70;8.20;;;2.10;91.70;;;;;;5030095;28;20187;-87
2023/01/26 11:20:59;;;;;;;8.63;7.03;;;2.00;90.80;;;;;;5072288;28;20660;-88
2023/01/26 11:27:20;;;;;;;9.20;6.87;;;1.80;92.10;;;;;;5069781;28;20219;-88
2023/01/26 11:30:36;;;;;;;20.03;9.60;;;1.90;94.00;;;;;;5027702;28;20257;-87
2023/01/26 11:33:46;;;;;;;23.17;9.70;;;1.90;93.80;;;;;;5069406;28;20203;-87
2023/01/26 11:36:56;;;;;;;33.93;11.80;;;1.80;94.50;;;;;;4998541;28;20189;-87
2023/01/26 11:40:08;;;;;;;;;;;;;;;;;;;;;
2023/01/26 11:43:18;;;;;;;8.17;6.23;;;1.70;96.30;;;;;;4990198;28;20281;-87
2023/01/26 11:46:11;;;;;;;8.93;6.23;;;1.70;97.10;;;;;;5071393;28;20184;-89
2023/01/26 11:48:58;;;;;;;8.80;6.13;;;1.70;97.40;;;;;;5072046;28;20211;-90
2023/01/26 11:51:54;;;;;;;9.07;6.30;;;1.50;97.70;;;;;;5069190;28;20194;-89
2023/01/26 11:54:41;;;;;;;7.17;5.57;;;1.30;99.50;;;;;;5070638;28;20614;-88
2023/01/26 11:57:41;;;;;;;8.13;5.90;;;1.30;99.90;;;;;;5070343;28;20184;-87
2023/01/26 12:00:39;;;;;;;8.57;6.53;;;1.30;99.90;;;;;;5070064;28;21937;-87
2023/01/26 12:03:34;;;;;;;7.83;5.90;;;1.30;99.90;;;;;;5068195;28;20184;-89
2023/01/26 12:06:21;;;;;;;7.37;5.90;;;1.30;99.80;;;;;;5068887;28;20214;-88
2023/01/26 12:09:21;;;;;;;7.20;6.13;;;1.30;99.90;;;;;;5073066;28;20260;-88
2023/01/26 12:12:36;;;;;;;8.80;5.90;;;1.30;99.90;;;;;;5064443;28;20241;-89
2023/01/26 12:15:27;;;;;;;7.43;5.70;;;1.40;99.50;;;;;;5054806;28;20199;-86
2023/01/26 12:18:16;;;;;;;8.10;7.27;;;1.30;99.10;;;;;;5072176;28;20338;-88
2023/01/26 12:21:07;;;;;;;8.13;6.60;;;1.40;99.90;;;;;;5072195;28;20729;-88
2023/01/26 12:23:41;;;;;;;7.03;6.33;;;1.40;98.60;;;;;;5069820;28;20184;-88
2023/01/26 12:26:23;;;;;;;6.53;5.77;;;1.50;98.90;;;;;;5071550;28;20176;-89
2023/01/26 12:29:12;;;;;;;7.20;6.00;;;1.50;97.80;;;;;;5069794;28;20199;-88
2023/01/26 12:31:58;;;;;;;6.37;5.70;;;1.50;97.60;;;;;;5070590;28;20194;-88
2023/01/26 12:34:32;;;;;;;6.93;6.20;;;1.50;98.00;;;;;;5076428;28;20178;-88
2023/01/26 12:37:09;;;;;;;10.83;6.63;;;1.60;97.80;;;;;;5081981;28;20156;-91
2023/01/26 12:39:35;;;;;;;14.87;7.03;;;1.70;97.10;;;;;;5091301;28;20297;-89
2023/01/26 12:42:07;;;;;;;7.27;5.47;;;1.70;97.50;;;;;;5086877;28;20206;-90
2023/01/26 12:45:11;;;;;;;10.03;6.13;;;1.70;95.40;;;;;;5085555;28;20254;-88
2023/01/26 12:47:47;;;;;;;8.23;5.97;;;1.70;95.00;;;;;;5074869;28;20179;-90
2023/01/26 12:50:30;;;;;;;9.17;6.57;;;1.70;94.50;;;;;;5071872;28;20364;-88
2023/01/26 12:53:32;;;;;;;8.37;5.67;;;1.70;94.00;;;;;;5071951;28;20195;-89
2023/01/26 12:56:03;;;;;;;9.83;6.70;;;1.70;92.20;;;;;;5036239;28;20205;-89
2023/01/26 12:58:36;;;;;;;6.60;5.70;;;1.60;92.80;;;;;;5070149;28;20277;-90
2023/01/26 13:01:04;;;;;;;5.23;4.60;;;1.70;91.30;;;;;;5068953;28;20368;-88
2023/01/26 13:03:37;;;;;;;5.10;4.30;;;1.60;89.00;;;;;;5066233;28;20196;-87
2023/01/26 13:06:08;;;;;;;4.87;4.37;;;1.50;90.40;;;;;;5069702;28;20575;-88
2023/01/26 13:08:34;;;;;;;5.87;5.20;;;1.50;91.30;;;;;;5069466;28;20199;-87
2023/01/26 13:11:07;;;;;;;5.30;4.37;;;1.50;90.80;;;;;;5066968;28;20190;-87
2023/01/26 13:14:07;;;;;;;5.47;4.73;;;1.60;88.50;;;;;;5065980;28;20833;-88
2023/01/26 13:16:33;;;;;;;8.40;4.83;;;1.70;87.00;;;;;;5019488;28;20207;-89
2023/01/26 13:19:01;;;;;;;6.87;5.00;;;1.60;86.90;;;;;;5071886;28;20219;-91
2023/01/26 13:21:38;;;;;;;6.73;5.50;;;1.60;86.90;;;;;;5069821;28;20168;-88
2023/01/26 13:24:16;;;;;;;5.10;4.60;;;1.70;85.70;;;;;;5069877;28;20187;-87
2023/01/26 13:26:56;;;;;;;5.10;4.47;;;1.50;84.10;;;;;;5070332;28;20541;-89
2023/01/26 13:29:30;;;;;;;4.97;4.33;;;1.50;84.60;;;;;;5070841;28;20215;-88
2023/01/26 13:32:08;;;;;;;5.60;4.80;;;1.50;86.70;;;;;;5073571;28;20180;-89
2023/01/26 13:34:42;;;;;;;5.57;4.67;;;1.60;85.70;;;;;;5073747;28;20179;-87
2023/01/26 13:37:33;;;;;;;5.40;4.70;;;1.60;83.20;;;;;;5072754;28;20308;-88
2023/01/26 13:40:04;;;;;;;5.37;4.87;;;1.60;83.50;;;;;;5072031;28;20211;-88
2023/01/26 13:42:39;;;;;;;5.27;4.73;;;1.60;83.80;;;;;;5072611;28;20530;-88
2023/01/26 13:45:19;;;;;;;5.73;4.70;;;1.70;84.30;;;;;;5070116;28;20191;-90
2023/01/26 13:47:49;;;;;;;5.30;4.80;;;1.60;81.90;;;;;;5075157;28;20224;-90
2023/01/26 13:50:22;;;;;;;5.43;4.83;;;1.70;82.70;;;;;;5076477;28;20175;-89
2023/01/26 13:52:48;;;;;;;10.87;5.93;;;1.80;82.80;;;;;;5071731;28;20384;-89
2023/01/26 13:55:22;;;;;;;5.20;4.53;;;1.80;81.50;;;;;;5074432;28;20737;-89
2023/01/26 13:57:48;;;;;;;5.80;5.23;;;1.70;81.60;;;;;;5074423;28;20211;-91
2023/01/26 14:00:15;;;;;;;5.37;4.80;;;1.70;80.40;;;;;;5073853;28;20210;-88
2023/01/26 14:02:48;;;;;;;5.47;4.97;;;1.50;80.70;;;;;;5073715;28;20202;-88
2023/01/26 14:05:22;;;;;;;4.60;4.20;;;1.50;81.90;;;;;;5074798;28;20191;-92
2023/01/26 14:07:49;;;;;;;5.70;4.97;;;1.50;82.70;;;;;;5076198;28;20184;-90